sensor_id;sensor_type;location;lat;lon;timestamp;P1;durP1;ratioP1;P2;durP2;ratioP2
60006;SDS011;45863;50.336;3.536;2023-06-14T00:00:18;12.43;;;7.55;;
60006;SDS011;45863;50.336;3.536;2023-06-14T00:02:43;12.50;;;7.43;;
60006;SDS011;45863;50.336;3.536;2023-06-14T00:05:09;14.53;;;8.13;;
60006;SDS011;45863;50.336;3.536;2023-06-14T00:07:37;14.13;;;7.20;;
60006;SDS011;45863;50.336;3.536;2023-06-14T00:10:09;14.95;;;7.65;;
60006;SDS011;45863;50.336;3.536;2023-06-14T00:12:35;17.35;;;8.30;;
60006;SDS011;45863;50.336;3.536;2023-06-14T00:15:01;13.52;;;7.28;;
60006;SDS011;45863;50.336;3.536;2023-06-14T00:17:26;13.43;;;7.45;;
60006;SDS011;45863;50.336;3.536;2023-06-14T00:19:55;15.45;;;8.00;;
60006;SDS011;45863;50.336;3.536;2023-06-14T00:22:21;12.88;;;7.97;;
60006;SDS011;45863;50.336;3.536;2023-06-14T00:24:49;13.57;;;7.60;;
60006;SDS011;45863;50.336;3.536;2023-06-14T00:27:14;14.48;;;7.25;;
60006;SDS011;45863;50.336;3.536;2023-06-14T00:29:40;13.07;;;7.03;;
60006;SDS011;45863;50.336;3.536;2023-06-14T00:32:05;16.33;;;7.13;;
60006;SDS011;45863;50.336;3.536;2023-06-14T00:34:30;14.57;;;7.95;;
60006;SDS011;45863;50.336;3.536;2023-06-14T00:36:56;12.40;;;7.63;;
60006;SDS011;45863;50.336;3.536;2023-06-14T00:39:21;13.60;;;7.90;;
60006;SDS011;45863;50.336;3.536;2023-06-14T00:41:46;14.10;;;8.20;;
60006;SDS011;45863;50.336;3.536;2023-06-14T00:44:11;12.87;;;8.27;;
60006;SDS011;45863;50.336;3.536;2023-06-14T00:46:38;13.27;;;7.30;;
60006;SDS011;45863;50.336;3.536;2023-06-14T00:49:03;17.83;;;8.57;;
60006;SDS011;45863;50.336;3.536;2023-06-14T00:51:28;15.25;;;7.97;;
60006;SDS011;45863;50.336;3.536;2023-06-14T00:53:54;14.95;;;7.82;;
60006;SDS011;45863;50.336;3.536;2023-06-14T00:56:19;12.05;;;7.63;;
60006;SDS011;45863;50.336;3.536;2023-06-14T00:58:45;13.35;;;8.10;;
60006;SDS011;45863;50.336;3.536;2023-06-14T01:01:11;14.15;;;8.15;;
60006;SDS011;45863;50.336;3.536;2023-06-14T01:03:36;13.93;;;8.18;;
60006;SDS011;45863;50.336;3.536;2023-06-14T01:06:28;9.68;;;6.85;;
60006;SDS011;45863;50.336;3.536;2023-06-14T01:09:03;14.07;;;8.07;;
60006;SDS011;45863;50.336;3.536;2023-06-14T01:11:33;11.90;;;7.75;;
60006;SDS011;45863;50.336;3.536;2023-06-14T01:14:03;18.73;;;9.00;;
60006;SDS011;45863;50.336;3.536;2023-06-14T01:16:28;13.18;;;8.10;;
60006;SDS011;45863;50.336;3.536;2023-06-14T01:18:54;13.77;;;7.53;;
60006;SDS011;45863;50.336;3.536;2023-06-14T01:21:23;12.75;;;7.88;;
60006;SDS011;45863;50.336;3.536;2023-06-14T01:23:49;12.65;;;7.45;;
60006;SDS011;45863;50.336;3.536;2023-06-14T01:26:21;14.05;;;8.23;;
60006;SDS011;45863;50.336;3.536;2023-06-14T01:28:46;14.20;;;7.65;;
60006;SDS011;45863;50.336;3.536;2023-06-14T01:31:16;10.90;;;7.28;;
60006;SDS011;45863;50.336;3.536;2023-06-14T01:33:42;15.43;;;7.97;;
60006;SDS011;45863;50.336;3.536;2023-06-14T01:36:07;13.70;;;7.68;;
60006;SDS011;45863;50.336;3.536;2023-06-14T01:38:33;12.63;;;7.63;;
60006;SDS011;45863;50.336;3.536;2023-06-14T01:40:58;14.40;;;8.40;;
60006;SDS011;45863;50.336;3.536;2023-06-14T01:43:25;11.35;;;7.38;;
60006;SDS011;45863;50.336;3.536;2023-06-14T01:45:51;15.18;;;8.00;;
60006;SDS011;45863;50.336;3.536;2023-06-14T01:48:16;13.77;;;7.65;;
60006;SDS011;45863;50.336;3.536;2023-06-14T01:50:41;15.57;;;8.13;;
60006;SDS011;45863;50.336;3.536;2023-06-14T01:53:07;11.48;;;7.55;;
60006;SDS011;45863;50.336;3.536;2023-06-14T01:55:32;14.48;;;8.05;;
60006;SDS011;45863;50.336;3.536;2023-06-14T01:58:05;15.27;;;8.15;;
60006;SDS011;45863;50.336;3.536;2023-06-14T02:00:30;12.07;;;8.38;;
60006;SDS011;45863;50.336;3.536;2023-06-14T02:02:55;16.37;;;7.90;;
60006;SDS011;45863;50.336;3.536;2023-06-14T02:05:21;15.38;;;8.65;;
60006;SDS011;45863;50.336;3.536;2023-06-14T02:07:46;12.05;;;8.35;;
60006;SDS011;45863;50.336;3.536;2023-06-14T02:10:11;13.48;;;8.52;;
60006;SDS011;45863;50.336;3.536;2023-06-14T02:12:37;11.52;;;7.40;;
60006;SDS011;45863;50.336;3.536;2023-06-14T02:15:02;14.38;;;7.75;;
60006;SDS011;45863;50.336;3.536;2023-06-14T02:17:28;14.90;;;8.73;;
60006;SDS011;45863;50.336;3.536;2023-06-14T02:19:54;14.40;;;8.15;;
60006;SDS011;45863;50.336;3.536;2023-06-14T02:22:20;12.02;;;8.15;;
60006;SDS011;45863;50.336;3.536;2023-06-14T02:24:46;12.25;;;7.90;;
60006;SDS011;45863;50.336;3.536;2023-06-14T02:27:12;16.02;;;8.55;;
60006;SDS011;45863;50.336;3.536;2023-06-14T02:29:37;20.65;;;8.77;;
60006;SDS011;45863;50.336;3.536;2023-06-14T02:32:06;13.80;;;9.07;;
60006;SDS011;45863;50.336;3.536;2023-06-14T02:34:32;16.25;;;9.68;;
60006;SDS011;45863;50.336;3.536;2023-06-14T02:36:57;15.38;;;9.35;;
60006;SDS011;45863;50.336;3.536;2023-06-14T02:39:23;14.70;;;8.77;;
60006;SDS011;45863;50.336;3.536;2023-06-14T02:41:49;13.30;;;8.73;;
60006;SDS011;45863;50.336;3.536;2023-06-14T02:44:15;13.07;;;9.15;;
60006;SDS011;45863;50.336;3.536;2023-06-14T02:46:42;14.65;;;8.18;;
60006;SDS011;45863;50.336;3.536;2023-06-14T02:49:08;15.10;;;8.88;;
60006;SDS011;45863;50.336;3.536;2023-06-14T02:51:33;16.57;;;8.83;;
60006;SDS011;45863;50.336;3.536;2023-06-14T02:53:59;15.32;;;8.80;;
60006;SDS011;45863;50.336;3.536;2023-06-14T02:56:24;14.30;;;8.82;;
60006;SDS011;45863;50.336;3.536;2023-06-14T02:58:51;13.38;;;8.30;;
60006;SDS011;45863;50.336;3.536;2023-06-14T03:01:17;12.32;;;7.82;;
60006;SDS011;45863;50.336;3.536;2023-06-14T03:03:43;14.27;;;9.02;;
60006;SDS011;45863;50.336;3.536;2023-06-14T03:06:08;13.07;;;8.13;;
60006;SDS011;45863;50.336;3.536;2023-06-14T03:08:34;14.55;;;9.00;;
60006;SDS011;45863;50.336;3.536;2023-06-14T03:11:03;12.30;;;8.13;;
60006;SDS011;45863;50.336;3.536;2023-06-14T03:13:30;13.93;;;8.18;;
60006;SDS011;45863;50.336;3.536;2023-06-14T03:15:57;16.00;;;8.35;;
60006;SDS011;45863;50.336;3.536;2023-06-14T03:18:22;14.65;;;9.88;;
60006;SDS011;45863;50.336;3.536;2023-06-14T03:20:50;16.90;;;9.90;;
60006;SDS011;45863;50.336;3.536;2023-06-14T03:23:16;13.70;;;9.27;;
60006;SDS011;45863;50.336;3.536;2023-06-14T03:25:41;14.77;;;9.47;;
60006;SDS011;45863;50.336;3.536;2023-06-14T03:28:07;13.77;;;8.70;;
60006;SDS011;45863;50.336;3.536;2023-06-14T03:30:32;17.52;;;10.10;;
60006;SDS011;45863;50.336;3.536;2023-06-14T03:32:58;14.45;;;9.13;;
60006;SDS011;45863;50.336;3.536;2023-06-14T03:35:26;13.38;;;9.38;;
60006;SDS011;45863;50.336;3.536;2023-06-14T03:37:51;18.08;;;9.32;;
60006;SDS011;45863;50.336;3.536;2023-06-14T03:40:17;18.77;;;9.30;;
60006;SDS011;45863;50.336;3.536;2023-06-14T03:42:43;17.35;;;10.13;;
60006;SDS011;45863;50.336;3.536;2023-06-14T03:45:08;16.10;;;9.50;;
60006;SDS011;45863;50.336;3.536;2023-06-14T03:47:33;12.52;;;9.45;;
60006;SDS011;45863;50.336;3.536;2023-06-14T03:49:59;16.42;;;9.57;;
60006;SDS011;45863;50.336;3.536;2023-06-14T03:52:25;13.32;;;9.32;;
60006;SDS011;45863;50.336;3.536;2023-06-14T03:54:51;14.82;;;9.80;;
60006;SDS011;45863;50.336;3.536;2023-06-14T03:57:16;16.75;;;9.77;;
60006;SDS011;45863;50.336;3.536;2023-06-14T03:59:41;19.63;;;10.40;;
60006;SDS011;45863;50.336;3.536;2023-06-14T04:02:07;14.65;;;8.98;;
60006;SDS011;45863;50.336;3.536;2023-06-14T04:04:34;17.10;;;10.30;;
60006;SDS011;45863;50.336;3.536;2023-06-14T04:07:00;14.27;;;9.88;;
60006;SDS011;45863;50.336;3.536;2023-06-14T04:09:25;16.33;;;10.07;;
60006;SDS011;45863;50.336;3.536;2023-06-14T04:11:51;15.70;;;10.20;;
60006;SDS011;45863;50.336;3.536;2023-06-14T04:14:18;16.33;;;11.05;;
60006;SDS011;45863;50.336;3.536;2023-06-14T04:16:43;18.73;;;11.10;;
60006;SDS011;45863;50.336;3.536;2023-06-14T04:19:08;18.98;;;12.02;;
60006;SDS011;45863;50.336;3.536;2023-06-14T04:21:33;14.77;;;11.07;;
60006;SDS011;45863;50.336;3.536;2023-06-14T04:23:59;18.33;;;10.73;;
60006;SDS011;45863;50.336;3.536;2023-06-14T04:26:26;18.45;;;10.60;;
60006;SDS011;45863;50.336;3.536;2023-06-14T04:28:54;21.90;;;12.50;;
60006;SDS011;45863;50.336;3.536;2023-06-14T04:31:21;18.90;;;10.80;;
60006;SDS011;45863;50.336;3.536;2023-06-14T04:33:51;19.27;;;11.13;;
60006;SDS011;45863;50.336;3.536;2023-06-14T04:36:18;18.63;;;11.45;;
60006;SDS011;45863;50.336;3.536;2023-06-14T04:38:43;16.42;;;10.88;;
60006;SDS011;45863;50.336;3.536;2023-06-14T04:41:10;17.45;;;10.80;;
60006;SDS011;45863;50.336;3.536;2023-06-14T04:43:36;14.63;;;9.88;;
60006;SDS011;45863;50.336;3.536;2023-06-14T04:46:03;15.35;;;9.60;;
60006;SDS011;45863;50.336;3.536;2023-06-14T04:48:30;19.42;;;11.15;;
60006;SDS011;45863;50.336;3.536;2023-06-14T04:50:56;19.55;;;11.20;;
60006;SDS011;45863;50.336;3.536;2023-06-14T04:53:21;16.38;;;10.63;;
60006;SDS011;45863;50.336;3.536;2023-06-14T04:55:48;16.63;;;10.90;;
60006;SDS011;45863;50.336;3.536;2023-06-14T04:58:13;18.67;;;9.90;;
60006;SDS011;45863;50.336;3.536;2023-06-14T05:00:39;16.85;;;10.38;;
60006;SDS011;45863;50.336;3.536;2023-06-14T05:03:04;20.35;;;10.07;;
60006;SDS011;45863;50.336;3.536;2023-06-14T05:05:31;15.07;;;10.77;;
60006;SDS011;45863;50.336;3.536;2023-06-14T05:07:56;17.25;;;10.15;;
60006;SDS011;45863;50.336;3.536;2023-06-14T05:10:21;22.97;;;11.00;;
60006;SDS011;45863;50.336;3.536;2023-06-14T05:12:46;19.27;;;10.67;;
60006;SDS011;45863;50.336;3.536;2023-06-14T05:15:12;18.45;;;11.02;;
60006;SDS011;45863;50.336;3.536;2023-06-14T05:17:38;17.70;;;10.32;;
60006;SDS011;45863;50.336;3.536;2023-06-14T05:20:05;18.30;;;10.50;;
60006;SDS011;45863;50.336;3.536;2023-06-14T05:22:31;17.60;;;11.38;;
60006;SDS011;45863;50.336;3.536;2023-06-14T05:24:57;18.10;;;11.40;;
60006;SDS011;45863;50.336;3.536;2023-06-14T05:27:22;21.30;;;11.27;;
60006;SDS011;45863;50.336;3.536;2023-06-14T05:29:47;17.08;;;11.43;;
60006;SDS011;45863;50.336;3.536;2023-06-14T05:32:12;22.75;;;11.57;;
60006;SDS011;45863;50.336;3.536;2023-06-14T05:34:37;17.60;;;11.93;;
60006;SDS011;45863;50.336;3.536;2023-06-14T05:37:03;20.00;;;11.88;;
60006;SDS011;45863;50.336;3.536;2023-06-14T05:39:29;18.02;;;12.27;;
60006;SDS011;45863;50.336;3.536;2023-06-14T05:41:54;20.92;;;11.70;;
60006;SDS011;45863;50.336;3.536;2023-06-14T05:44:20;24.05;;;12.07;;
60006;SDS011;45863;50.336;3.536;2023-06-14T05:46:45;19.73;;;11.15;;
60006;SDS011;45863;50.336;3.536;2023-06-14T05:49:10;20.97;;;12.60;;
60006;SDS011;45863;50.336;3.536;2023-06-14T05:51:37;15.48;;;11.30;;
60006;SDS011;45863;50.336;3.536;2023-06-14T05:54:02;20.60;;;11.45;;
60006;SDS011;45863;50.336;3.536;2023-06-14T05:56:27;17.80;;;10.13;;
60006;SDS011;45863;50.336;3.536;2023-06-14T05:58:53;18.13;;;10.43;;
60006;SDS011;45863;50.336;3.536;2023-06-14T06:01:18;17.40;;;11.40;;
60006;SDS011;45863;50.336;3.536;2023-06-14T06:03:43;18.70;;;10.85;;
60006;SDS011;45863;50.336;3.536;2023-06-14T06:06:12;21.42;;;10.77;;
60006;SDS011;45863;50.336;3.536;2023-06-14T06:08:37;16.30;;;10.93;;
60006;SDS011;45863;50.336;3.536;2023-06-14T06:11:02;16.53;;;11.13;;
60006;SDS011;45863;50.336;3.536;2023-06-14T06:13:27;20.17;;;11.25;;
60006;SDS011;45863;50.336;3.536;2023-06-14T06:15:52;17.93;;;10.10;;
60006;SDS011;45863;50.336;3.536;2023-06-14T06:18:18;15.57;;;10.02;;
60006;SDS011;45863;50.336;3.536;2023-06-14T06:20:43;16.08;;;10.30;;
60006;SDS011;45863;50.336;3.536;2023-06-14T06:23:09;17.73;;;9.98;;
60006;SDS011;45863;50.336;3.536;2023-06-14T06:25:34;16.35;;;9.60;;
60006;SDS011;45863;50.336;3.536;2023-06-14T06:28:00;16.13;;;10.13;;
60006;SDS011;45863;50.336;3.536;2023-06-14T06:30:26;17.35;;;10.40;;
60006;SDS011;45863;50.336;3.536;2023-06-14T06:32:51;19.80;;;10.18;;
60006;SDS011;45863;50.336;3.536;2023-06-14T06:35:17;17.65;;;11.02;;
60006;SDS011;45863;50.336;3.536;2023-06-14T06:37:42;17.75;;;10.60;;
60006;SDS011;45863;50.336;3.536;2023-06-14T06:40:08;18.58;;;10.32;;
60006;SDS011;45863;50.336;3.536;2023-06-14T06:42:33;18.25;;;9.70;;
60006;SDS011;45863;50.336;3.536;2023-06-14T06:44:58;13.33;;;9.73;;
60006;SDS011;45863;50.336;3.536;2023-06-14T06:47:23;23.60;;;10.77;;
60006;SDS011;45863;50.336;3.536;2023-06-14T06:49:50;19.75;;;10.07;;
60006;SDS011;45863;50.336;3.536;2023-06-14T06:52:15;16.23;;;9.77;;
60006;SDS011;45863;50.336;3.536;2023-06-14T06:54:40;19.38;;;10.40;;
60006;SDS011;45863;50.336;3.536;2023-06-14T06:57:06;23.58;;;10.20;;
60006;SDS011;45863;50.336;3.536;2023-06-14T06:59:31;17.45;;;9.60;;
60006;SDS011;45863;50.336;3.536;2023-06-14T07:01:56;16.40;;;9.55;;
60006;SDS011;45863;50.336;3.536;2023-06-14T07:04:22;17.90;;;9.90;;
60006;SDS011;45863;50.336;3.536;2023-06-14T07:06:47;16.05;;;9.85;;
60006;SDS011;45863;50.336;3.536;2023-06-14T07:09:12;13.13;;;9.20;;
60006;SDS011;45863;50.336;3.536;2023-06-14T07:11:39;17.50;;;10.07;;
60006;SDS011;45863;50.336;3.536;2023-06-14T07:14:04;15.10;;;10.02;;
60006;SDS011;45863;50.336;3.536;2023-06-14T07:16:30;22.58;;;9.93;;
60006;SDS011;45863;50.336;3.536;2023-06-14T07:18:55;17.58;;;9.82;;
60006;SDS011;45863;50.336;3.536;2023-06-14T07:21:20;16.85;;;9.82;;
60006;SDS011;45863;50.336;3.536;2023-06-14T07:23:46;14.90;;;9.48;;
60006;SDS011;45863;50.336;3.536;2023-06-14T07:26:11;15.95;;;10.63;;
60006;SDS011;45863;50.336;3.536;2023-06-14T07:28:37;13.53;;;10.13;;
60006;SDS011;45863;50.336;3.536;2023-06-14T07:31:02;16.13;;;10.68;;
60006;SDS011;45863;50.336;3.536;2023-06-14T07:33:27;18.60;;;9.77;;
60006;SDS011;45863;50.336;3.536;2023-06-14T07:35:52;15.95;;;9.95;;
60006;SDS011;45863;50.336;3.536;2023-06-14T07:38:18;17.52;;;9.52;;
60006;SDS011;45863;50.336;3.536;2023-06-14T07:40:43;20.37;;;9.77;;
60006;SDS011;45863;50.336;3.536;2023-06-14T07:43:08;16.13;;;10.60;;
60006;SDS011;45863;50.336;3.536;2023-06-14T07:45:33;15.93;;;9.77;;
60006;SDS011;45863;50.336;3.536;2023-06-14T07:47:59;15.55;;;8.75;;
60006;SDS011;45863;50.336;3.536;2023-06-14T07:50:24;15.48;;;9.32;;
60006;SDS011;45863;50.336;3.536;2023-06-14T07:52:49;16.60;;;9.90;;
60006;SDS011;45863;50.336;3.536;2023-06-14T07:55:14;20.70;;;10.48;;
60006;SDS011;45863;50.336;3.536;2023-06-14T07:57:40;14.48;;;9.55;;
60006;SDS011;45863;50.336;3.536;2023-06-14T08:00:05;17.55;;;9.20;;
60006;SDS011;45863;50.336;3.536;2023-06-14T08:02:36;16.83;;;9.52;;
60006;SDS011;45863;50.336;3.536;2023-06-14T08:05:01;15.40;;;9.77;;
60006;SDS011;45863;50.336;3.536;2023-06-14T08:07:26;19.05;;;10.50;;
60006;SDS011;45863;50.336;3.536;2023-06-14T08:09:52;18.40;;;9.50;;
60006;SDS011;45863;50.336;3.536;2023-06-14T08:12:17;20.25;;;9.65;;
60006;SDS011;45863;50.336;3.536;2023-06-14T08:14:42;23.07;;;10.10;;
60006;SDS011;45863;50.336;3.536;2023-06-14T08:17:07;16.97;;;10.27;;
60006;SDS011;45863;50.336;3.536;2023-06-14T08:19:33;15.48;;;9.10;;
60006;SDS011;45863;50.336;3.536;2023-06-14T08:21:58;15.47;;;9.60;;
60006;SDS011;45863;50.336;3.536;2023-06-14T08:24:23;19.30;;;9.82;;
60006;SDS011;45863;50.336;3.536;2023-06-14T08:26:54;19.60;;;10.30;;
60006;SDS011;45863;50.336;3.536;2023-06-14T08:29:21;18.50;;;10.18;;
60006;SDS011;45863;50.336;3.536;2023-06-14T08:31:46;14.98;;;9.52;;
60006;SDS011;45863;50.336;3.536;2023-06-14T08:34:11;20.50;;;8.68;;
60006;SDS011;45863;50.336;3.536;2023-06-14T08:36:37;23.10;;;9.33;;
60006;SDS011;45863;50.336;3.536;2023-06-14T08:39:02;14.60;;;8.10;;
60006;SDS011;45863;50.336;3.536;2023-06-14T08:41:28;18.60;;;9.40;;
60006;SDS011;45863;50.336;3.536;2023-06-14T08:43:54;16.33;;;8.43;;
60006;SDS011;45863;50.336;3.536;2023-06-14T08:46:19;16.98;;;8.65;;
60006;SDS011;45863;50.336;3.536;2023-06-14T08:48:48;19.77;;;8.20;;
60006;SDS011;45863;50.336;3.536;2023-06-14T08:51:14;16.08;;;8.90;;
60006;SDS011;45863;50.336;3.536;2023-06-14T08:53:41;11.70;;;7.72;;
60006;SDS011;45863;50.336;3.536;2023-06-14T08:56:08;17.27;;;7.65;;
60006;SDS011;45863;50.336;3.536;2023-06-14T08:58:38;16.55;;;8.20;;
60006;SDS011;45863;50.336;3.536;2023-06-14T09:01:08;13.23;;;7.85;;
60006;SDS011;45863;50.336;3.536;2023-06-14T09:03:34;17.85;;;7.97;;
60006;SDS011;45863;50.336;3.536;2023-06-14T09:05:59;17.92;;;7.68;;
60006;SDS011;45863;50.336;3.536;2023-06-14T09:08:26;15.77;;;8.50;;
60006;SDS011;45863;50.336;3.536;2023-06-14T09:10:55;17.80;;;8.00;;
60006;SDS011;45863;50.336;3.536;2023-06-14T09:13:20;17.15;;;8.27;;
60006;SDS011;45863;50.336;3.536;2023-06-14T09:15:45;16.53;;;8.10;;
60006;SDS011;45863;50.336;3.536;2023-06-14T09:18:11;14.40;;;7.23;;
60006;SDS011;45863;50.336;3.536;2023-06-14T09:20:36;10.67;;;6.60;;
60006;SDS011;45863;50.336;3.536;2023-06-14T09:23:02;16.48;;;7.18;;
60006;SDS011;45863;50.336;3.536;2023-06-14T09:25:27;15.45;;;6.68;;
60006;SDS011;45863;50.336;3.536;2023-06-14T09:27:52;16.37;;;7.13;;
60006;SDS011;45863;50.336;3.536;2023-06-14T09:30:19;9.73;;;6.57;;
60006;SDS011;45863;50.336;3.536;2023-06-14T09:32:45;13.13;;;6.78;;
60006;SDS011;45863;50.336;3.536;2023-06-14T09:35:10;16.45;;;6.22;;
60006;SDS011;45863;50.336;3.536;2023-06-14T09:37:35;12.20;;;6.93;;
60006;SDS011;45863;50.336;3.536;2023-06-14T09:40:03;13.30;;;6.15;;
60006;SDS011;45863;50.336;3.536;2023-06-14T09:42:28;11.23;;;5.75;;
60006;SDS011;45863;50.336;3.536;2023-06-14T09:44:55;11.55;;;5.85;;
60006;SDS011;45863;50.336;3.536;2023-06-14T09:47:21;11.98;;;5.72;;
60006;SDS011;45863;50.336;3.536;2023-06-14T09:49:47;17.00;;;6.18;;
60006;SDS011;45863;50.336;3.536;2023-06-14T09:52:19;10.60;;;5.72;;
60006;SDS011;45863;50.336;3.536;2023-06-14T09:54:45;12.73;;;5.70;;
60006;SDS011;45863;50.336;3.536;2023-06-14T09:57:21;10.40;;;5.80;;
60006;SDS011;45863;50.336;3.536;2023-06-14T09:59:47;9.82;;;5.35;;
60006;SDS011;45863;50.336;3.536;2023-06-14T10:04:44;11.43;;;5.38;;
60006;SDS011;45863;50.336;3.536;2023-06-14T10:07:11;7.78;;;5.38;;
60006;SDS011;45863;50.336;3.536;2023-06-14T10:09:37;9.82;;;4.80;;
60006;SDS011;45863;50.336;3.536;2023-06-14T10:12:04;7.80;;;4.65;;
60006;SDS011;45863;50.336;3.536;2023-06-14T10:14:30;16.77;;;5.88;;
60006;SDS011;45863;50.336;3.536;2023-06-14T10:17:00;8.25;;;4.82;;
60006;SDS011;45863;50.336;3.536;2023-06-14T10:19:34;8.57;;;4.65;;
60006;SDS011;45863;50.336;3.536;2023-06-14T10:22:09;7.68;;;5.00;;
60006;SDS011;45863;50.336;3.536;2023-06-14T10:24:42;13.05;;;4.63;;
60006;SDS011;45863;50.336;3.536;2023-06-14T10:27:07;7.22;;;5.22;;
60006;SDS011;45863;50.336;3.536;2023-06-14T10:32:22;10.48;;;4.88;;
60006;SDS011;45863;50.336;3.536;2023-06-14T10:37:23;13.48;;;5.35;;
60006;SDS011;45863;50.336;3.536;2023-06-14T10:39:49;11.27;;;5.03;;
60006;SDS011;45863;50.336;3.536;2023-06-14T10:42:14;8.48;;;5.43;;
60006;SDS011;45863;50.336;3.536;2023-06-14T10:44:40;10.48;;;4.70;;
60006;SDS011;45863;50.336;3.536;2023-06-14T10:47:07;10.32;;;4.82;;
60006;SDS011;45863;50.336;3.536;2023-06-14T10:49:45;10.85;;;5.00;;
60006;SDS011;45863;50.336;3.536;2023-06-14T10:52:12;6.55;;;4.05;;
60006;SDS011;45863;50.336;3.536;2023-06-14T10:57:36;9.35;;;4.97;;
60006;SDS011;45863;50.336;3.536;2023-06-14T11:00:02;9.35;;;4.65;;
60006;SDS011;45863;50.336;3.536;2023-06-14T11:05:06;12.32;;;5.25;;
60006;SDS011;45863;50.336;3.536;2023-06-14T11:13:03;7.28;;;4.90;;
60006;SDS011;45863;50.336;3.536;2023-06-14T11:15:31;13.35;;;5.10;;
60006;SDS011;45863;50.336;3.536;2023-06-14T11:17:57;8.27;;;5.00;;
60006;SDS011;45863;50.336;3.536;2023-06-14T11:20:26;8.70;;;4.95;;
60006;SDS011;45863;50.336;3.536;2023-06-14T11:22:51;9.73;;;5.65;;
60006;SDS011;45863;50.336;3.536;2023-06-14T11:25:17;7.63;;;5.13;;
60006;SDS011;45863;50.336;3.536;2023-06-14T11:27:42;8.65;;;5.07;;
60006;SDS011;45863;50.336;3.536;2023-06-14T11:30:08;8.10;;;5.25;;
60006;SDS011;45863;50.336;3.536;2023-06-14T11:32:37;6.78;;;5.05;;
60006;SDS011;45863;50.336;3.536;2023-06-14T11:35:03;9.00;;;5.20;;
60006;SDS011;45863;50.336;3.536;2023-06-14T11:37:29;7.50;;;4.43;;
60006;SDS011;45863;50.336;3.536;2023-06-14T11:39:56;8.73;;;4.70;;
60006;SDS011;45863;50.336;3.536;2023-06-14T11:42:21;10.30;;;4.78;;
60006;SDS011;45863;50.336;3.536;2023-06-14T11:44:47;8.67;;;4.90;;
60006;SDS011;45863;50.336;3.536;2023-06-14T11:47:12;8.02;;;4.80;;
60006;SDS011;45863;50.336;3.536;2023-06-14T11:49:37;10.27;;;5.20;;
60006;SDS011;45863;50.336;3.536;2023-06-14T11:52:03;10.77;;;4.57;;
60006;SDS011;45863;50.336;3.536;2023-06-14T11:54:28;9.63;;;5.10;;
60006;SDS011;45863;50.336;3.536;2023-06-14T11:56:53;11.18;;;5.15;;
60006;SDS011;45863;50.336;3.536;2023-06-14T11:59:20;8.80;;;5.30;;
60006;SDS011;45863;50.336;3.536;2023-06-14T12:01:45;9.50;;;4.82;;
60006;SDS011;45863;50.336;3.536;2023-06-14T12:04:10;12.38;;;5.10;;
60006;SDS011;45863;50.336;3.536;2023-06-14T12:06:35;9.27;;;4.88;;
60006;SDS011;45863;50.336;3.536;2023-06-14T12:09:06;10.13;;;4.93;;
60006;SDS011;45863;50.336;3.536;2023-06-14T12:11:43;8.32;;;5.20;;
60006;SDS011;45863;50.336;3.536;2023-06-14T12:14:08;9.30;;;5.32;;
60006;SDS011;45863;50.336;3.536;2023-06-14T12:16:34;10.20;;;5.13;;
60006;SDS011;45863;50.336;3.536;2023-06-14T12:19:01;9.85;;;4.97;;
60006;SDS011;45863;50.336;3.536;2023-06-14T12:21:32;7.32;;;4.50;;
60006;SDS011;45863;50.336;3.536;2023-06-14T12:23:58;10.52;;;4.80;;
60006;SDS011;45863;50.336;3.536;2023-06-14T12:26:23;10.73;;;5.43;;
60006;SDS011;45863;50.336;3.536;2023-06-14T12:28:51;8.20;;;4.63;;
60006;SDS011;45863;50.336;3.536;2023-06-14T12:31:16;9.85;;;4.47;;
60006;SDS011;45863;50.336;3.536;2023-06-14T12:33:42;9.00;;;4.68;;
60006;SDS011;45863;50.336;3.536;2023-06-14T12:36:08;10.77;;;5.00;;
60006;SDS011;45863;50.336;3.536;2023-06-14T12:38:33;8.85;;;5.03;;
60006;SDS011;45863;50.336;3.536;2023-06-14T12:40:59;11.45;;;5.30;;
60006;SDS011;45863;50.336;3.536;2023-06-14T12:43:24;10.60;;;4.57;;
60006;SDS011;45863;50.336;3.536;2023-06-14T12:45:49;7.88;;;5.00;;
60006;SDS011;45863;50.336;3.536;2023-06-14T12:48:15;6.97;;;4.80;;
60006;SDS011;45863;50.336;3.536;2023-06-14T12:50:40;9.70;;;5.07;;
60006;SDS011;45863;50.336;3.536;2023-06-14T12:53:05;7.43;;;4.85;;
60006;SDS011;45863;50.336;3.536;2023-06-14T12:55:31;9.00;;;4.80;;
60006;SDS011;45863;50.336;3.536;2023-06-14T12:57:57;9.10;;;4.88;;
60006;SDS011;45863;50.336;3.536;2023-06-14T13:00:22;7.33;;;5.30;;
60006;SDS011;45863;50.336;3.536;2023-06-14T13:02:47;8.80;;;4.80;;
60006;SDS011;45863;50.336;3.536;2023-06-14T13:05:13;8.80;;;5.47;;
60006;SDS011;45863;50.336;3.536;2023-06-14T13:07:38;7.83;;;4.70;;
60006;SDS011;45863;50.336;3.536;2023-06-14T13:10:03;7.83;;;4.63;;
60006;SDS011;45863;50.336;3.536;2023-06-14T13:12:28;8.00;;;5.20;;
60006;SDS011;45863;50.336;3.536;2023-06-14T13:14:54;8.60;;;4.90;;
60006;SDS011;45863;50.336;3.536;2023-06-14T13:17:19;11.90;;;5.40;;
60006;SDS011;45863;50.336;3.536;2023-06-14T13:19:44;9.27;;;4.55;;
60006;SDS011;45863;50.336;3.536;2023-06-14T13:22:09;9.03;;;4.77;;
60006;SDS011;45863;50.336;3.536;2023-06-14T13:24:35;11.53;;;5.50;;
60006;SDS011;45863;50.336;3.536;2023-06-14T13:27:00;9.10;;;5.00;;
60006;SDS011;45863;50.336;3.536;2023-06-14T13:29:25;7.47;;;4.83;;
60006;SDS011;45863;50.336;3.536;2023-06-14T13:31:51;11.48;;;5.03;;
60006;SDS011;45863;50.336;3.536;2023-06-14T13:34:16;8.95;;;4.75;;
60006;SDS011;45863;50.336;3.536;2023-06-14T13:36:42;8.80;;;5.23;;
60006;SDS011;45863;50.336;3.536;2023-06-14T13:39:07;11.55;;;4.80;;
60006;SDS011;45863;50.336;3.536;2023-06-14T13:41:32;11.10;;;5.20;;
60006;SDS011;45863;50.336;3.536;2023-06-14T13:43:59;11.35;;;5.28;;
60006;SDS011;45863;50.336;3.536;2023-06-14T13:46:25;8.60;;;5.30;;
60006;SDS011;45863;50.336;3.536;2023-06-14T13:48:50;9.13;;;5.05;;
60006;SDS011;45863;50.336;3.536;2023-06-14T13:51:16;9.20;;;5.15;;
60006;SDS011;45863;50.336;3.536;2023-06-14T13:53:43;9.48;;;5.20;;
60006;SDS011;45863;50.336;3.536;2023-06-14T13:56:08;9.90;;;5.80;;
60006;SDS011;45863;50.336;3.536;2023-06-14T13:58:34;8.37;;;5.30;;
60006;SDS011;45863;50.336;3.536;2023-06-14T14:00:59;12.27;;;5.22;;
60006;SDS011;45863;50.336;3.536;2023-06-14T14:03:24;12.80;;;5.78;;
60006;SDS011;45863;50.336;3.536;2023-06-14T14:05:49;11.37;;;5.70;;
60006;SDS011;45863;50.336;3.536;2023-06-14T14:08:15;11.30;;;5.93;;
60006;SDS011;45863;50.336;3.536;2023-06-14T14:10:40;13.83;;;6.20;;
60006;SDS011;45863;50.336;3.536;2023-06-14T14:13:06;9.32;;;6.28;;
60006;SDS011;45863;50.336;3.536;2023-06-14T14:15:31;9.10;;;5.77;;
60006;SDS011;45863;50.336;3.536;2023-06-14T14:17:59;9.95;;;6.13;;
60006;SDS011;45863;50.336;3.536;2023-06-14T14:20:25;9.20;;;5.35;;
60006;SDS011;45863;50.336;3.536;2023-06-14T14:22:50;8.00;;;6.27;;
60006;SDS011;45863;50.336;3.536;2023-06-14T14:25:15;11.57;;;6.67;;
60006;SDS011;45863;50.336;3.536;2023-06-14T14:27:40;9.27;;;6.50;;
60006;SDS011;45863;50.336;3.536;2023-06-14T14:30:06;10.80;;;6.90;;
60006;SDS011;45863;50.336;3.536;2023-06-14T14:32:31;10.82;;;6.47;;
60006;SDS011;45863;50.336;3.536;2023-06-14T14:34:56;12.07;;;6.03;;
60006;SDS011;45863;50.336;3.536;2023-06-14T14:37:21;11.20;;;6.47;;
60006;SDS011;45863;50.336;3.536;2023-06-14T14:39:47;13.45;;;6.55;;
60006;SDS011;45863;50.336;3.536;2023-06-14T14:42:12;13.30;;;6.00;;
60006;SDS011;45863;50.336;3.536;2023-06-14T14:44:38;9.57;;;5.72;;